sensor_id;sensor_type;location;lat;lon;timestamp;temperature;humidity
47022;DHT22;32779;52.264;6.154;2023-05-17T00:00:54;8.30;99.90
47022;DHT22;32779;52.264;6.154;2023-05-17T00:03:19;8.40;99.90
47022;DHT22;32779;52.264;6.154;2023-05-17T00:05:45;8.40;99.90
47022;DHT22;32779;52.264;6.154;2023-05-17T00:08:11;8.30;99.90
47022;DHT22;32779;52.264;6.154;2023-05-17T00:10:36;8.30;99.90
47022;DHT22;32779;52.264;6.154;2023-05-17T00:13:02;8.30;99.90
47022;DHT22;32779;52.264;6.154;2023-05-17T00:15:28;8.30;99.90
47022;DHT22;32779;52.264;6.154;2023-05-17T00:17:54;8.30;99.90
47022;DHT22;32779;52.264;6.154;2023-05-17T00:20:20;8.20;99.90
47022;DHT22;32779;52.264;6.154;2023-05-17T00:22:46;8.20;99.90
47022;DHT22;32779;52.264;6.154;2023-05-17T00:25:12;8.20;99.90
47022;DHT22;32779;52.264;6.154;2023-05-17T00:27:37;8.30;99.90
47022;DHT22;32779;52.264;6.154;2023-05-17T00:30:03;8.30;99.90
47022;DHT22;32779;52.264;6.154;2023-05-17T00:32:29;8.30;99.90
47022;DHT22;32779;52.264;6.154;2023-05-17T00:34:55;8.30;99.90
47022;DHT22;32779;52.264;6.154;2023-05-17T00:37:20;8.30;99.90
47022;DHT22;32779;52.264;6.154;2023-05-17T00:39:46;8.30;99.90
47022;DHT22;32779;52.264;6.154;2023-05-17T00:42:11;8.30;99.90
47022;DHT22;32779;52.264;6.154;2023-05-17T00:44:37;8.30;99.90
47022;DHT22;32779;52.264;6.154;2023-05-17T00:47:03;8.30;99.90
47022;DHT22;32779;52.264;6.154;2023-05-17T00:49:28;8.30;99.90
47022;DHT22;32779;52.264;6.154;2023-05-17T00:51:54;8.30;99.90
47022;DHT22;32779;52.264;6.154;2023-05-17T00:54:21;8.30;99.90
47022;DHT22;32779;52.264;6.154;2023-05-17T00:56:47;8.40;99.90
47022;DHT22;32779;52.264;6.154;2023-05-17T00:59:13;8.30;99.90
47022;DHT22;32779;52.264;6.154;2023-05-17T01:01:43;8.30;99.90
47022;DHT22;32779;52.264;6.154;2023-05-17T01:04:09;8.20;99.90
47022;DHT22;32779;52.264;6.154;2023-05-17T01:06:37;8.20;99.90
47022;DHT22;32779;52.264;6.154;2023-05-17T01:09:04;8.20;99.90
47022;DHT22;32779;52.264;6.154;2023-05-17T01:14:38;8.20;99.90
47022;DHT22;32779;52.264;6.154;2023-05-17T01:17:11;8.20;99.90
47022;DHT22;32779;52.264;6.154;2023-05-17T01:19:58;8.20;99.90
47022;DHT22;32779;52.264;6.154;2023-05-17T01:22:52;8.20;99.90
47022;DHT22;32779;52.264;6.154;2023-05-17T01:28:13;8.30;99.90
47022;DHT22;32779;52.264;6.154;2023-05-17T01:30:41;8.30;99.90
47022;DHT22;32779;52.264;6.154;2023-05-17T01:33:09;8.40;99.90
47022;DHT22;32779;52.264;6.154;2023-05-17T01:35:35;8.50;99.90
47022;DHT22;32779;52.264;6.154;2023-05-17T01:38:01;8.50;99.90
47022;DHT22;32779;52.264;6.154;2023-05-17T01:40:27;8.50;99.90
47022;DHT22;32779;52.264;6.154;2023-05-17T01:43:03;8.50;99.90
47022;DHT22;32779;52.264;6.154;2023-05-17T01:45:42;8.60;99.90
47022;DHT22;32779;52.264;6.154;2023-05-17T01:48:27;8.60;99.90
47022;DHT22;32779;52.264;6.154;2023-05-17T01:50:56;8.60;99.90
47022;DHT22;32779;52.264;6.154;2023-05-17T01:53:29;8.70;99.90
47022;DHT22;32779;52.264;6.154;2023-05-17T01:56:03;8.70;99.90
47022;DHT22;32779;52.264;6.154;2023-05-17T01:58:38;8.70;99.90
47022;DHT22;32779;52.264;6.154;2023-05-17T02:01:05;8.70;99.90
47022;DHT22;32779;52.264;6.154;2023-05-17T02:03:30;8.70;99.90
47022;DHT22;32779;52.264;6.154;2023-05-17T02:05:56;8.70;99.90
47022;DHT22;32779;52.264;6.154;2023-05-17T02:08:21;8.80;99.90
47022;DHT22;32779;52.264;6.154;2023-05-17T02:10:47;8.80;99.90
47022;DHT22;32779;52.264;6.154;2023-05-17T02:13:13;8.80;99.90
47022;DHT22;32779;52.264;6.154;2023-05-17T02:15:38;8.80;99.90
47022;DHT22;32779;52.264;6.154;2023-05-17T02:18:04;8.90;99.90
47022;DHT22;32779;52.264;6.154;2023-05-17T02:20:30;8.90;99.90
47022;DHT22;32779;52.264;6.154;2023-05-17T02:22:55;8.90;99.90
47022;DHT22;32779;52.264;6.154;2023-05-17T02:25:21;8.80;99.90
47022;DHT22;32779;52.264;6.154;2023-05-17T02:27:46;8.80;99.90
47022;DHT22;32779;52.264;6.154;2023-05-17T02:30:12;8.80;99.90
47022;DHT22;32779;52.264;6.154;2023-05-17T02:32:38;8.80;99.90
47022;DHT22;32779;52.264;6.154;2023-05-17T02:35:05;8.80;99.90
47022;DHT22;32779;52.264;6.154;2023-05-17T02:37:30;8.70;99.90
47022;DHT22;32779;52.264;6.154;2023-05-17T02:39:56;8.70;99.90
47022;DHT22;32779;52.264;6.154;2023-05-17T02:42:22;8.60;99.90
47022;DHT22;32779;52.264;6.154;2023-05-17T02:44:47;8.60;99.90
47022;DHT22;32779;52.264;6.154;2023-05-17T02:47:17;8.60;99.90
47022;DHT22;32779;52.264;6.154;2023-05-17T02:49:43;8.50;99.90
47022;DHT22;32779;52.264;6.154;2023-05-17T02:52:08;8.50;99.90
47022;DHT22;32779;52.264;6.154;2023-05-17T02:54:34;8.40;99.90
47022;DHT22;32779;52.264;6.154;2023-05-17T02:57:00;8.40;99.90
47022;DHT22;32779;52.264;6.154;2023-05-17T02:59:25;8.30;99.90
47022;DHT22;32779;52.264;6.154;2023-05-17T03:01:51;8.30;99.90
47022;DHT22;32779;52.264;6.154;2023-05-17T03:04:16;8.20;99.90
47022;DHT22;32779;52.264;6.154;2023-05-17T03:06:44;8.20;99.90
47022;DHT22;32779;52.264;6.154;2023-05-17T03:09:10;8.20;99.90
47022;DHT22;32779;52.264;6.154;2023-05-17T03:11:36;8.10;99.90
47022;DHT22;32779;52.264;6.154;2023-05-17T03:14:01;8.10;99.90
47022;DHT22;32779;52.264;6.154;2023-05-17T03:16:27;8.00;99.90
47022;DHT22;32779;52.264;6.154;2023-05-17T03:18:52;8.00;99.90
47022;DHT22;32779;52.264;6.154;2023-05-17T03:21:18;7.90;99.90
47022;DHT22;32779;52.264;6.154;2023-05-17T03:23:44;7.90;99.90
47022;DHT22;32779;52.264;6.154;2023-05-17T03:26:09;7.90;99.90
47022;DHT22;32779;52.264;6.154;2023-05-17T03:28:35;7.80;99.90
47022;DHT22;32779;52.264;6.154;2023-05-17T03:31:01;7.80;99.90
47022;DHT22;32779;52.264;6.154;2023-05-17T03:33:26;7.80;99.90
47022;DHT22;32779;52.264;6.154;2023-05-17T03:35:52;7.70;99.90
47022;DHT22;32779;52.264;6.154;2023-05-17T03:38:17;7.70;99.90
47022;DHT22;32779;52.264;6.154;2023-05-17T03:40:43;7.70;99.90
47022;DHT22;32779;52.264;6.154;2023-05-17T03:43:08;7.60;99.90
47022;DHT22;32779;52.264;6.154;2023-05-17T03:45:34;7.60;99.90
47022;DHT22;32779;52.264;6.154;2023-05-17T03:48:00;7.50;99.90
47022;DHT22;32779;52.264;6.154;2023-05-17T03:50:25;7.50;99.90
47022;DHT22;32779;52.264;6.154;2023-05-17T03:52:51;7.50;99.90
47022;DHT22;32779;52.264;6.154;2023-05-17T03:55:17;7.40;99.90
47022;DHT22;32779;52.264;6.154;2023-05-17T03:57:42;7.40;99.90
47022;DHT22;32779;52.264;6.154;2023-05-17T04:00:08;7.30;99.90
47022;DHT22;32779;52.264;6.154;2023-05-17T04:02:35;7.20;99.90
47022;DHT22;32779;52.264;6.154;2023-05-17T04:05:00;7.20;99.90
47022;DHT22;32779;52.264;6.154;2023-05-17T04:07:26;7.10;99.90
47022;DHT22;32779;52.264;6.154;2023-05-17T04:09:52;7.10;99.90
47022;DHT22;32779;52.264;6.154;2023-05-17T04:12:17;7.10;99.90
47022;DHT22;32779;52.264;6.154;2023-05-17T04:14:43;7.00;99.90
47022;DHT22;32779;52.264;6.154;2023-05-17T04:17:08;7.00;99.90
47022;DHT22;32779;52.264;6.154;2023-05-17T04:19:34;7.00;99.90
47022;DHT22;32779;52.264;6.154;2023-05-17T04:22:00;7.00;99.90
47022;DHT22;32779;52.264;6.154;2023-05-17T04:24:25;7.00;99.90
47022;DHT22;32779;52.264;6.154;2023-05-17T04:26:51;6.90;99.90
47022;DHT22;32779;52.264;6.154;2023-05-17T04:29:16;6.90;99.90
47022;DHT22;32779;52.264;6.154;2023-05-17T04:31:42;6.90;99.90
47022;DHT22;32779;52.264;6.154;2023-05-17T04:34:08;6.90;99.90
47022;DHT22;32779;52.264;6.154;2023-05-17T04:36:33;6.90;99.90
47022;DHT22;32779;52.264;6.154;2023-05-17T04:38:59;6.90;99.90
47022;DHT22;32779;52.264;6.154;2023-05-17T04:41:25;6.90;99.90
47022;DHT22;32779;52.264;6.154;2023-05-17T04:43:50;6.90;99.90
47022;DHT22;32779;52.264;6.154;2023-05-17T04:46:16;7.00;99.90
47022;DHT22;32779;52.264;6.154;2023-05-17T04:48:42;7.00;99.90
47022;DHT22;32779;52.264;6.154;2023-05-17T04:51:07;7.00;99.90
47022;DHT22;32779;52.264;6.154;2023-05-17T04:53:33;7.00;99.90
47022;DHT22;32779;52.264;6.154;2023-05-17T04:55:59;7.00;99.90
47022;DHT22;32779;52.264;6.154;2023-05-17T04:58:24;7.10;99.90
47022;DHT22;32779;52.264;6.154;2023-05-17T05:00:51;7.10;99.90
47022;DHT22;32779;52.264;6.154;2023-05-17T05:03:16;7.20;99.90
47022;DHT22;32779;52.264;6.154;2023-05-17T05:05:42;7.20;99.90
47022;DHT22;32779;52.264;6.154;2023-05-17T05:08:08;7.30;99.90
47022;DHT22;32779;52.264;6.154;2023-05-17T05:10:34;7.40;99.90
47022;DHT22;32779;52.264;6.154;2023-05-17T05:12:59;7.40;99.90
47022;DHT22;32779;52.264;6.154;2023-05-17T05:15:25;7.60;99.90
47022;DHT22;32779;52.264;6.154;2023-05-17T05:17:51;7.70;99.90
47022;DHT22;32779;52.264;6.154;2023-05-17T05:20:16;7.70;99.90
47022;DHT22;32779;52.264;6.154;2023-05-17T05:22:42;7.80;99.90
47022;DHT22;32779;52.264;6.154;2023-05-17T05:25:08;7.90;99.90
47022;DHT22;32779;52.264;6.154;2023-05-17T05:27:34;8.00;99.90
47022;DHT22;32779;52.264;6.154;2023-05-17T05:30:03;8.00;99.90
47022;DHT22;32779;52.264;6.154;2023-05-17T05:32:28;8.10;99.90
47022;DHT22;32779;52.264;6.154;2023-05-17T05:34:54;8.20;99.90
47022;DHT22;32779;52.264;6.154;2023-05-17T05:37:19;8.20;99.90
47022;DHT22;32779;52.264;6.154;2023-05-17T05:39:45;8.30;99.90
47022;DHT22;32779;52.264;6.154;2023-05-17T05:42:11;8.40;99.90
47022;DHT22;32779;52.264;6.154;2023-05-17T05:44:36;8.40;99.90
47022;DHT22;32779;52.264;6.154;2023-05-17T05:47:03;8.50;99.90
47022;DHT22;32779;52.264;6.154;2023-05-17T05:49:29;8.50;99.90
47022;DHT22;32779;52.264;6.154;2023-05-17T05:51:54;8.60;99.90
47022;DHT22;32779;52.264;6.154;2023-05-17T05:54:20;8.70;99.90
47022;DHT22;32779;52.264;6.154;2023-05-17T05:56:45;8.80;99.90
47022;DHT22;32779;52.264;6.154;2023-05-17T05:59:11;8.90;99.90
47022;DHT22;32779;52.264;6.154;2023-05-17T06:01:37;8.90;99.90
47022;DHT22;32779;52.264;6.154;2023-05-17T06:04:02;8.90;99.90
47022;DHT22;32779;52.264;6.154;2023-05-17T06:06:28;9.00;99.90
47022;DHT22;32779;52.264;6.154;2023-05-17T06:08:53;9.00;99.90
47022;DHT22;32779;52.264;6.154;2023-05-17T06:11:19;9.10;99.90
47022;DHT22;32779;52.264;6.154;2023-05-17T06:13:45;9.10;99.90
47022;DHT22;32779;52.264;6.154;2023-05-17T06:16:11;9.20;99.90
47022;DHT22;32779;52.264;6.154;2023-05-17T06:18:36;9.20;99.90
47022;DHT22;32779;52.264;6.154;2023-05-17T06:21:02;9.30;99.90
47022;DHT22;32779;52.264;6.154;2023-05-17T06:23:28;9.40;99.90
47022;DHT22;32779;52.264;6.154;2023-05-17T06:25:53;9.50;99.90
47022;DHT22;32779;52.264;6.154;2023-05-17T06:28:19;9.60;99.90
47022;DHT22;32779;52.264;6.154;2023-05-17T06:30:45;9.80;99.90
47022;DHT22;32779;52.264;6.154;2023-05-17T06:33:11;9.90;99.90
47022;DHT22;32779;52.264;6.154;2023-05-17T06:35:37;10.10;99.90
47022;DHT22;32779;52.264;6.154;2023-05-17T06:38:03;10.20;99.90
47022;DHT22;32779;52.264;6.154;2023-05-17T06:40:28;10.40;99.90
47022;DHT22;32779;52.264;6.154;2023-05-17T06:42:54;10.60;99.90
47022;DHT22;32779;52.264;6.154;2023-05-17T06:45:20;10.70;99.90
47022;DHT22;32779;52.264;6.154;2023-05-17T06:47:46;11.00;99.90
47022;DHT22;32779;52.264;6.154;2023-05-17T06:50:11;11.00;99.90
47022;DHT22;32779;52.264;6.154;2023-05-17T06:52:37;11.20;99.90
47022;DHT22;32779;52.264;6.154;2023-05-17T06:55:03;11.30;99.90
47022;DHT22;32779;52.264;6.154;2023-05-17T06:57:29;11.40;99.90
47022;DHT22;32779;52.264;6.154;2023-05-17T06:59:54;11.50;99.90
47022;DHT22;32779;52.264;6.154;2023-05-17T07:02:20;11.60;99.90
47022;DHT22;32779;52.264;6.154;2023-05-17T07:04:45;11.80;99.90
47022;DHT22;32779;52.264;6.154;2023-05-17T07:07:11;11.90;99.90
47022;DHT22;32779;52.264;6.154;2023-05-17T07:09:37;12.00;99.90
47022;DHT22;32779;52.264;6.154;2023-05-17T07:12:03;12.10;99.90
47022;DHT22;32779;52.264;6.154;2023-05-17T07:14:29;12.10;99.90
47022;DHT22;32779;52.264;6.154;2023-05-17T07:16:54;12.10;99.90
47022;DHT22;32779;52.264;6.154;2023-05-17T07:19:20;12.20;99.90
47022;DHT22;32779;52.264;6.154;2023-05-17T07:21:46;12.30;99.90
47022;DHT22;32779;52.264;6.154;2023-05-17T07:24:11;12.50;99.90
47022;DHT22;32779;52.264;6.154;2023-05-17T07:26:37;12.60;99.90
47022;DHT22;32779;52.264;6.154;2023-05-17T07:29:02;12.70;99.90
47022;DHT22;32779;52.264;6.154;2023-05-17T07:31:28;12.80;99.90
47022;DHT22;32779;52.264;6.154;2023-05-17T07:33:54;12.80;99.90
47022;DHT22;32779;52.264;6.154;2023-05-17T07:36:19;12.80;99.90
47022;DHT22;32779;52.264;6.154;2023-05-17T07:38:45;12.80;99.90
47022;DHT22;32779;52.264;6.154;2023-05-17T07:41:10;12.70;99.90
47022;DHT22;32779;52.264;6.154;2023-05-17T07:43:41;12.70;99.90
47022;DHT22;32779;52.264;6.154;2023-05-17T07:46:06;12.70;99.90
47022;DHT22;32779;52.264;6.154;2023-05-17T07:48:32;12.80;99.90
47022;DHT22;32779;52.264;6.154;2023-05-17T07:50:58;13.00;99.90
47022;DHT22;32779;52.264;6.154;2023-05-17T07:53:23;13.10;99.90
47022;DHT22;32779;52.264;6.154;2023-05-17T07:55:49;13.30;99.90
47022;DHT22;32779;52.264;6.154;2023-05-17T07:58:14;13.30;99.80
47022;DHT22;32779;52.264;6.154;2023-05-17T08:00:40;13.40;99.90
47022;DHT22;32779;52.264;6.154;2023-05-17T08:03:07;13.40;99.90
47022;DHT22;32779;52.264;6.154;2023-05-17T08:05:33;13.40;99.10
47022;DHT22;32779;52.264;6.154;2023-05-17T08:07:58;13.00;99.30
47022;DHT22;32779;52.264;6.154;2023-05-17T08:10:25;13.10;99.40
47022;DHT22;32779;52.264;6.154;2023-05-17T08:12:51;13.10;99.40
47022;DHT22;32779;52.264;6.154;2023-05-17T08:15:17;12.90;99.20
47022;DHT22;32779;52.264;6.154;2023-05-17T08:17:43;13.00;98.10
47022;DHT22;32779;52.264;6.154;2023-05-17T08:20:09;13.00;98.70
47022;DHT22;32779;52.264;6.154;2023-05-17T08:22:34;13.30;99.80
47022;DHT22;32779;52.264;6.154;2023-05-17T08:25:01;13.50;98.20
47022;DHT22;32779;52.264;6.154;2023-05-17T08:27:26;13.30;97.60
47022;DHT22;32779;52.264;6.154;2023-05-17T08:29:55;13.40;98.30
47022;DHT22;32779;52.264;6.154;2023-05-17T08:32:22;13.30;97.30
47022;DHT22;32779;52.264;6.154;2023-05-17T08:34:48;13.20;96.00
47022;DHT22;32779;52.264;6.154;2023-05-17T08:37:13;13.10;97.00
47022;DHT22;32779;52.264;6.154;2023-05-17T08:39:39;13.20;97.10
47022;DHT22;32779;52.264;6.154;2023-05-17T08:42:08;13.40;96.40
47022;DHT22;32779;52.264;6.154;2023-05-17T08:44:33;13.50;97.10
47022;DHT22;32779;52.264;6.154;2023-05-17T08:47:02;13.50;96.60
47022;DHT22;32779;52.264;6.154;2023-05-17T08:49:29;13.30;96.30
47022;DHT22;32779;52.264;6.154;2023-05-17T08:51:59;13.20;96.20
47022;DHT22;32779;52.264;6.154;2023-05-17T08:54:26;13.30;97.60
47022;DHT22;32779;52.264;6.154;2023-05-17T08:56:57;13.50;96.30
47022;DHT22;32779;52.264;6.154;2023-05-17T08:59:25;13.50;95.10
47022;DHT22;32779;52.264;6.154;2023-05-17T09:01:52;13.50;94.80
47022;DHT22;32779;52.264;6.154;2023-05-17T09:04:19;13.50;95.90
47022;DHT22;32779;52.264;6.154;2023-05-17T09:06:45;13.60;96.70
47022;DHT22;32779;52.264;6.154;2023-05-17T09:09:11;13.60;96.60
47022;DHT22;32779;52.264;6.154;2023-05-17T09:11:37;13.40;96.50
47022;DHT22;32779;52.264;6.154;2023-05-17T09:14:04;13.00;95.90
47022;DHT22;32779;52.264;6.154;2023-05-17T09:16:31;13.00;96.30
47022;DHT22;32779;52.264;6.154;2023-05-17T09:18:58;13.10;97.60
47022;DHT22;32779;52.264;6.154;2023-05-17T09:21:24;13.40;96.20
47022;DHT22;32779;52.264;6.154;2023-05-17T09:23:51;13.80;96.50
47022;DHT22;32779;52.264;6.154;2023-05-17T09:26:17;13.80;95.40
47022;DHT22;32779;52.264;6.154;2023-05-17T09:28:42;13.90;95.70
47022;DHT22;32779;52.264;6.154;2023-05-17T09:31:09;13.90;95.50
47022;DHT22;32779;52.264;6.154;2023-05-17T09:33:48;14.00;95.90
47022;DHT22;32779;52.264;6.154;2023-05-17T09:36:15;14.20;95.30
47022;DHT22;32779;52.264;6.154;2023-05-17T09:38:40;14.10;94.90
47022;DHT22;32779;52.264;6.154;2023-05-17T09:41:06;14.10;95.80
47022;DHT22;32779;52.264;6.154;2023-05-17T09:43:32;14.30;96.50
47022;DHT22;32779;52.264;6.154;2023-05-17T09:45:57;14.40;94.20
47022;DHT22;32779;52.264;6.154;2023-05-17T09:48:25;14.40;94.80
47022;DHT22;32779;52.264;6.154;2023-05-17T09:50:52;14.50;95.60
47022;DHT22;32779;52.264;6.154;2023-05-17T09:53:25;14.50;96.20
47022;DHT22;32779;52.264;6.154;2023-05-17T09:55:52;14.50;96.10
47022;DHT22;32779;52.264;6.154;2023-05-17T09:58:19;14.40;96.60
47022;DHT22;32779;52.264;6.154;2023-05-17T10:00:50;14.00;96.10
47022;DHT22;32779;52.264;6.154;2023-05-17T10:03:17;13.70;95.90
47022;DHT22;32779;52.264;6.154;2023-05-17T10:05:43;13.50;97.00
47022;DHT22;32779;52.264;6.154;2023-05-17T10:08:12;13.60;97.60
47022;DHT22;32779;52.264;6.154;2023-05-17T10:10:39;13.50;96.70
47022;DHT22;32779;52.264;6.154;2023-05-17T10:13:08;13.50;96.10
47022;DHT22;32779;52.264;6.154;2023-05-17T10:15:35;13.50;96.80
47022;DHT22;32779;52.264;6.154;2023-05-17T10:18:03;13.60;97.20
47022;DHT22;32779;52.264;6.154;2023-05-17T10:20:30;13.80;97.20
47022;DHT22;32779;52.264;6.154;2023-05-17T10:22:57;14.00;96.40
47022;DHT22;32779;52.264;6.154;2023-05-17T10:25:24;14.20;95.40
47022;DHT22;32779;52.264;6.154;2023-05-17T10:27:50;14.20;93.50
47022;DHT22;32779;52.264;6.154;2023-05-17T10:30:16;14.30;94.30
47022;DHT22;32779;52.264;6.154;2023-05-17T10:32:44;14.40;93.60
47022;DHT22;32779;52.264;6.154;2023-05-17T10:35:11;14.30;93.40
47022;DHT22;32779;52.264;6.154;2023-05-17T10:37:40;14.10;94.30
47022;DHT22;32779;52.264;6.154;2023-05-17T10:40:07;14.00;93.70
47022;DHT22;32779;52.264;6.154;2023-05-17T10:42:42;13.90;95.10
47022;DHT22;32779;52.264;6.154;2023-05-17T10:45:11;14.10;94.40
47022;DHT22;32779;52.264;6.154;2023-05-17T10:47:38;14.00;95.10
47022;DHT22;32779;52.264;6.154;2023-05-17T10:50:10;13.90;95.70
47022;DHT22;32779;52.264;6.154;2023-05-17T10:52:39;13.60;95.40
47022;DHT22;32779;52.264;6.154;2023-05-17T10:55:10;13.60;96.00
47022;DHT22;32779;52.264;6.154;2023-05-17T10:57:36;13.70;95.90
47022;DHT22;32779;52.264;6.154;2023-05-17T11:00:04;13.90;94.80
47022;DHT22;32779;52.264;6.154;2023-05-17T11:02:39;13.90;93.60
47022;DHT22;32779;52.264;6.154;2023-05-17T11:05:05;13.90;94.10
47022;DHT22;32779;52.264;6.154;2023-05-17T11:07:31;13.80;94.40
47022;DHT22;32779;52.264;6.154;2023-05-17T11:10:02;13.80;93.30
47022;DHT22;32779;52.264;6.154;2023-05-17T11:12:36;13.90;93.80
47022;DHT22;32779;52.264;6.154;2023-05-17T11:17:48;14.00;92.50
47022;DHT22;32779;52.264;6.154;2023-05-17T11:22:55;14.10;94.20
47022;DHT22;32779;52.264;6.154;2023-05-17T11:25:23;14.10;93.50
47022;DHT22;32779;52.264;6.154;2023-05-17T11:27:50;13.80;92.50
47022;DHT22;32779;52.264;6.154;2023-05-17T11:30:24;13.90;94.10
47022;DHT22;32779;52.264;6.154;2023-05-17T11:33:01;14.10;94.60
47022;DHT22;32779;52.264;6.154;2023-05-17T11:35:37;14.30;92.60
47022;DHT22;32779;52.264;6.154;2023-05-17T11:38:22;14.40;92.20
47022;DHT22;32779;52.264;6.154;2023-05-17T11:40:53;14.40;92.60
47022;DHT22;32779;52.264;6.154;2023-05-17T11:43:20;14.20;91.90
47022;DHT22;32779;52.264;6.154;2023-05-17T11:45:51;14.20;92.80
47022;DHT22;32779;52.264;6.154;2023-05-17T11:48:19;14.10;91.90
47022;DHT22;32779;52.264;6.154;2023-05-17T11:50:47;14.20;93.30
47022;DHT22;32779;52.264;6.154;2023-05-17T11:53:13;14.40;92.40
47022;DHT22;32779;52.264;6.154;2023-05-17T11:55:39;14.40;92.30
47022;DHT22;32779;52.264;6.154;2023-05-17T11:58:07;14.50;92.90
47022;DHT22;32779;52.264;6.154;2023-05-17T12:00:33;14.60;92.70
47022;DHT22;32779;52.264;6.154;2023-05-17T12:03:14;14.60;92.00
47022;DHT22;32779;52.264;6.154;2023-05-17T12:05:40;14.70;92.50
47022;DHT22;32779;52.264;6.154;2023-05-17T12:08:06;14.80;93.00
47022;DHT22;32779;52.264;6.154;2023-05-17T12:10:32;14.90;92.40
47022;DHT22;32779;52.264;6.154;2023-05-17T12:12:58;15.00;92.80
47022;DHT22;32779;52.264;6.154;2023-05-17T12:15:24;15.00;92.70
47022;DHT22;32779;52.264;6.154;2023-05-17T12:17:50;14.90;92.40
47022;DHT22;32779;52.264;6.154;2023-05-17T12:20:17;14.80;92.50
47022;DHT22;32779;52.264;6.154;2023-05-17T12:22:53;14.70;92.50
47022;DHT22;32779;52.264;6.154;2023-05-17T12:25:23;14.90;92.30
47022;DHT22;32779;52.264;6.154;2023-05-17T12:28:11;14.90;92.80
47022;DHT22;32779;52.264;6.154;2023-05-17T12:30:37;14.90;92.00
47022;DHT22;32779;52.264;6.154;2023-05-17T12:33:03;14.90;91.10
47022;DHT22;32779;52.264;6.154;2023-05-17T12:35:30;14.80;91.10
47022;DHT22;32779;52.264;6.154;2023-05-17T12:37:56;14.70;92.00
47022;DHT22;32779;52.264;6.154;2023-05-17T12:40:21;14.70;92.50
47022;DHT22;32779;52.264;6.154;2023-05-17T12:42:47;14.80;91.10
47022;DHT22;32779;52.264;6.154;2023-05-17T12:45:13;14.90;91.30
47022;DHT22;32779;52.264;6.154;2023-05-17T12:47:38;15.00;92.70
47022;DHT22;32779;52.264;6.154;2023-05-17T12:50:04;15.10;91.80
47022;DHT22;32779;52.264;6.154;2023-05-17T12:52:33;15.20;91.40
47022;DHT22;32779;52.264;6.154;2023-05-17T12:55:02;15.20;91.80
47022;DHT22;32779;52.264;6.154;2023-05-17T12:57:28;15.10;91.60
47022;DHT22;32779;52.264;6.154;2023-05-17T12:59:54;14.90;91.10
47022;DHT22;32779;52.264;6.154;2023-05-17T13:02:20;14.90;91.70
47022;DHT22;32779;52.264;6.154;2023-05-17T13:04:45;14.80;91.50
47022;DHT22;32779;52.264;6.154;2023-05-17T13:07:11;14.70;91.30
47022;DHT22;32779;52.264;6.154;2023-05-17T13:09:47;14.70;92.00
47022;DHT22;32779;52.264;6.154;2023-05-17T13:12:19;14.70;92.40
47022;DHT22;32779;52.264;6.154;2023-05-17T13:14:47;14.90;91.30
47022;DHT22;32779;52.264;6.154;2023-05-17T13:17:25;14.90;92.10
47022;DHT22;32779;52.264;6.154;2023-05-17T13:19:51;14.80;91.90
47022;DHT22;32779;52.264;6.154;2023-05-17T13:22:18;14.90;93.30
47022;DHT22;32779;52.264;6.154;2023-05-17T13:24:43;15.00;92.50
47022;DHT22;32779;52.264;6.154;2023-05-17T13:27:10;15.10;92.70
47022;DHT22;32779;52.264;6.154;2023-05-17T13:29:36;15.30;93.30
47022;DHT22;32779;52.264;6.154;2023-05-17T13:32:02;15.30;92.90
47022;DHT22;32779;52.264;6.154;2023-05-17T13:34:28;15.50;92.10
47022;DHT22;32779;52.264;6.154;2023-05-17T13:36:53;15.40;92.20
47022;DHT22;32779;52.264;6.154;2023-05-17T13:39:21;15.40;93.00
47022;DHT22;32779;52.264;6.154;2023-05-17T13:41:47;15.20;92.10
47022;DHT22;32779;52.264;6.154;2023-05-17T13:44:12;15.20;92.00
47022;DHT22;32779;52.264;6.154;2023-05-17T13:46:38;15.20;91.30
47022;DHT22;32779;52.264;6.154;2023-05-17T13:49:03;15.10;90.60
47022;DHT22;32779;52.264;6.154;2023-05-17T13:51:30;15.20;92.10
47022;DHT22;32779;52.264;6.154;2023-05-17T13:53:56;15.40;92.80
47022;DHT22;32779;52.264;6.154;2023-05-17T13:56:22;15.40;91.50
47022;DHT22;32779;52.264;6.154;2023-05-17T13:58:47;15.30;92.10
47022;DHT22;32779;52.264;6.154;2023-05-17T14:01:14;14.90;91.90
47022;DHT22;32779;52.264;6.154;2023-05-17T14:03:40;14.80;92.60
47022;DHT22;32779;52.264;6.154;2023-05-17T14:06:06;14.80;91.80
47022;DHT22;32779;52.264;6.154;2023-05-17T14:08:32;14.80;93.20
47022;DHT22;32779;52.264;6.154;2023-05-17T14:10:58;14.70;91.40
47022;DHT22;32779;52.264;6.154;2023-05-17T14:13:25;14.80;91.40
47022;DHT22;32779;52.264;6.154;2023-05-17T14:15:51;14.80;92.20
47022;DHT22;32779;52.264;6.154;2023-05-17T14:18:16;15.00;92.40
47022;DHT22;32779;52.264;6.154;2023-05-17T14:20:42;15.20;91.70
47022;DHT22;32779;52.264;6.154;2023-05-17T14:23:07;15.20;91.50
47022;DHT22;32779;52.264;6.154;2023-05-17T14:25:33;15.30;89.90
47022;DHT22;32779;52.264;6.154;2023-05-17T14:27:59;15.30;90.90
47022;DHT22;32779;52.264;6.154;2023-05-17T14:30:24;15.50;91.70
47022;DHT22;32779;52.264;6.154;2023-05-17T14:32:50;15.40;90.90
47022;DHT22;32779;52.264;6.154;2023-05-17T14:35:16;15.40;90.30
47022;DHT22;32779;52.264;6.154;2023-05-17T14:37:42;15.10;91.00
47022;DHT22;32779;52.264;6.154;2023-05-17T14:40:08;15.00;90.60
47022;DHT22;32779;52.264;6.154;2023-05-17T14:42:34;14.90;91.00
47022;DHT22;32779;52.264;6.154;2023-05-17T14:45:00;15.10;91.70
47022;DHT22;32779;52.264;6.154;2023-05-17T14:47:26;15.10;91.50
47022;DHT22;32779;52.264;6.154;2023-05-17T14:49:51;15.10;91.80
47022;DHT22;32779;52.264;6.154;2023-05-17T14:52:17;15.10;90.90
47022;DHT22;32779;52.264;6.154;2023-05-17T14:54:42;15.00;91.10
47022;DHT22;32779;52.264;6.154;2023-05-17T14:57:08;15.00;91.20
47022;DHT22;32779;52.264;6.154;2023-05-17T14:59:34;15.10;91.20
47022;DHT22;32779;52.264;6.154;2023-05-17T15:02:00;15.20;91.50
47022;DHT22;32779;52.264;6.154;2023-05-17T15:04:25;15.40;92.10
47022;DHT22;32779;52.264;6.154;2023-05-17T15:06:51;15.50;90.30
47022;DHT22;32779;52.264;6.154;2023-05-17T15:09:17;15.50;91.20
47022;DHT22;32779;52.264;6.154;2023-05-17T15:11:43;15.20;89.40
47022;DHT22;32779;52.264;6.154;2023-05-17T15:14:10;15.10;88.80
47022;DHT22;32779;52.264;6.154;2023-05-17T15:16:36;14.90;90.40
47022;DHT22;32779;52.264;6.154;2023-05-17T15:19:02;15.00;90.20
47022;DHT22;32779;52.264;6.154;2023-05-17T15:21:28;14.80;90.00
47022;DHT22;32779;52.264;6.154;2023-05-17T15:23:54;14.80;90.90
47022;DHT22;32779;52.264;6.154;2023-05-17T15:26:19;14.90;91.30
47022;DHT22;32779;52.264;6.154;2023-05-17T15:28:45;14.90;91.60
47022;DHT22;32779;52.264;6.154;2023-05-17T15:31:14;15.00;92.30
47022;DHT22;32779;52.264;6.154;2023-05-17T15:33:39;15.20;91.90
47022;DHT22;32779;52.264;6.154;2023-05-17T15:36:08;15.30;91.40
47022;DHT22;32779;52.264;6.154;2023-05-17T15:38:34;15.40;91.80
47022;DHT22;32779;52.264;6.154;2023-05-17T15:41:01;15.40;90.50
47022;DHT22;32779;52.264;6.154;2023-05-17T15:43:28;15.50;91.10
47022;DHT22;32779;52.264;6.154;2023-05-17T15:45:54;15.50;91.30